createdAt,value
2023-01-30T00:01:44.231Z,76.50
2023-01-30T00:04:12.584Z,76.40
2023-01-30T00:06:42.204Z,76.40
2023-01-30T00:09:14.665Z,76.20
2023-01-30T00:11:42.447Z,76.20
2023-01-30T00:14:09.406Z,76.20
2023-01-30T00:16:36.240Z,76.20
2023-01-30T00:19:03.353Z,76.30
2023-01-30T00:21:30.425Z,76.20
2023-01-30T00:23:57.138Z,76.40
2023-01-30T00:26:23.916Z,76.30
2023-01-30T00:28:50.700Z,76.40
2023-01-30T00:31:17.482Z,76.40
2023-01-30T00:33:44.249Z,76.30
2023-01-30T00:36:11.509Z,76.40
2023-01-30T00:38:38.387Z,76.50
2023-01-30T00:41:07.212Z,76.40
2023-01-30T00:43:52.440Z,76.50
2023-01-30T00:46:58.309Z,76.50
2023-01-30T00:49:26.258Z,76.40
2023-01-30T00:51:52.978Z,76.30
2023-01-30T00:54:19.709Z,76.20
2023-01-30T00:56:46.475Z,76.10
2023-01-30T00:59:13.485Z,76.00
2023-01-30T01:01:40.373Z,76.00
2023-01-30T01:04:10.413Z,76.00
2023-01-30T01:06:38.003Z,76.20
2023-01-30T01:09:05.769Z,76.00
2023-01-30T01:11:32.544Z,76.00
2023-01-30T01:14:01.130Z,76.00
2023-01-30T01:16:29.790Z,75.90
2023-01-30T01:18:58.510Z,75.90
2023-01-30T01:21:25.264Z,76.00
2023-01-30T01:23:55.077Z,76.10
2023-01-30T01:26:22.247Z,76.10
2023-01-30T01:28:49.620Z,76.10
2023-01-30T01:31:17.508Z,76.10
2023-01-30T01:33:44.457Z,76.10
2023-01-30T01:36:12.278Z,76.10
2023-01-30T01:38:42.846Z,76.10
2023-01-30T01:41:15.130Z,76.20
2023-01-30T01:44:02.487Z,76.20
2023-01-30T01:46:37.110Z,76.20
2023-01-30T01:49:12.545Z,76.10
2023-01-30T01:51:46.655Z,76.10
2023-01-30T01:54:20.632Z,76.10
2023-01-30T01:56:49.789Z,76.00
2023-01-30T01:59:30.830Z,76.00
2023-01-30T02:02:03.314Z,75.90
2023-01-30T02:04:50.318Z,75.80
2023-01-30T02:07:21.615Z,75.90
2023-01-30T02:09:50.412Z,76.00
2023-01-30T02:12:17.588Z,76.20
2023-01-30T02:14:44.626Z,76.20
2023-01-30T02:17:13.684Z,76.30
2023-01-30T02:19:54.577Z,76.40
2023-01-30T02:22:37.599Z,76.50
2023-01-30T02:25:38.276Z,76.60
2023-01-30T02:28:29.645Z,76.70
2023-01-30T02:31:05.444Z,76.70
2023-01-30T02:33:44.373Z,76.80
2023-01-30T02:36:26.308Z,76.70
2023-01-30T02:39:15.113Z,76.90
2023-01-30T02:42:07.180Z,77.00
2023-01-30T02:45:26.590Z,77.00
2023-01-30T02:48:07.684Z,77.00
2023-01-30T02:50:47.647Z,77.10
2023-01-30T02:53:14.626Z,77.10
2023-01-30T02:55:42.833Z,77.00
2023-01-30T02:58:11.046Z,77.00
2023-01-30T03:00:44.169Z,77.10
2023-01-30T03:03:29.826Z,77.00
2023-01-30T03:06:25.844Z,77.10
2023-01-30T03:08:52.826Z,77.10
2023-01-30T03:11:24.385Z,77.20
2023-01-30T03:14:06.433Z,77.20
2023-01-30T03:16:38.590Z,77.20
2023-01-30T03:19:11.466Z,77.20
2023-01-30T03:21:45.700Z,77.20
2023-01-30T03:24:14.006Z,77.20
2023-01-30T03:26:46.752Z,77.20
2023-01-30T03:29:14.104Z,77.30
2023-01-30T03:31:41.170Z,77.20
2023-01-30T03:34:08.419Z,77.20
2023-01-30T03:36:35.394Z,77.20
2023-01-30T03:39:02.291Z,77.20
2023-01-30T03:41:29.304Z,77.10
2023-01-30T03:43:56.117Z,77.10
2023-01-30T03:46:23.713Z,77.10
2023-01-30T03:48:50.615Z,77.00
2023-01-30T03:51:17.511Z,76.90
2023-01-30T03:53:44.321Z,77.00
2023-01-30T03:56:12.445Z,77.00
2023-01-30T03:58:39.303Z,76.90
2023-01-30T04:01:16.387Z,77.00
2023-01-30T04:03:43.338Z,77.80
2023-01-30T04:06:10.210Z,76.90
2023-01-30T04:08:37.397Z,76.90
2023-01-30T04:11:05.495Z,77.10
2023-01-30T04:13:32.292Z,77.20
2023-01-30T04:16:23.603Z,77.10
2023-01-30T04:19:09.461Z,77.10
2023-01-30T04:21:37.508Z,77.00
2023-01-30T04:24:04.804Z,77.00
2023-01-30T04:26:31.623Z,76.80
2023-01-30T04:28:58.595Z,76.70
2023-01-30T04:31:26.977Z,77.50
2023-01-30T04:34:19.975Z,76.60
2023-01-30T04:36:46.885Z,76.40
2023-01-30T04:39:13.709Z,76.40
2023-01-30T04:41:41.094Z,76.20
2023-01-30T04:44:07.974Z,76.20
2023-01-30T04:46:47.530Z,76.10
2023-01-30T04:49:15.317Z,75.90
2023-01-30T04:51:43.227Z,75.80
2023-01-30T04:54:09.997Z,75.60
2023-01-30T04:56:36.734Z,75.50
2023-01-30T04:59:03.711Z,75.40
2023-01-30T05:01:38.214Z,75.00
2023-01-30T05:04:06.631Z,74.90
2023-01-30T05:06:34.183Z,74.70
2023-01-30T05:09:01.355Z,74.80
2023-01-30T05:11:29.500Z,74.90
2023-01-30T05:13:56.719Z,74.80
2023-01-30T05:16:23.719Z,74.70
2023-01-30T05:18:51.151Z,74.50
2023-01-30T05:21:23.865Z,74.20
2023-01-30T05:23:52.733Z,74.00
2023-01-30T05:26:19.780Z,73.70
2023-01-30T05:28:51.959Z,73.40
2023-01-30T05:31:19.081Z,72.90
2023-01-30T05:33:48.852Z,72.90
2023-01-30T05:36:17.435Z,72.70
2023-01-30T05:38:45.220Z,72.50
2023-01-30T05:41:14.274Z,72.40
2023-01-30T05:43:41.083Z,72.20
2023-01-30T05:46:10.220Z,72.00
2023-01-30T05:48:36.999Z,71.70
2023-01-30T05:51:03.919Z,71.50
2023-01-30T05:53:35.013Z,71.40
2023-01-30T05:56:06.209Z,71.30
2023-01-30T05:58:33.497Z,71.20
2023-01-30T06:01:11.314Z,71.00
2023-01-30T06:03:38.559Z,71.00
2023-01-30T06:06:06.646Z,71.10
2023-01-30T06:08:33.684Z,71.10
2023-01-30T06:11:05.392Z,72.00
2023-01-30T06:13:32.351Z,71.20
2023-01-30T06:15:59.340Z,71.20
2023-01-30T06:18:26.492Z,71.30
2023-01-30T06:20:54.015Z,71.10
2023-01-30T06:23:23.501Z,71.10
2023-01-30T06:25:51.568Z,71.10
2023-01-30T06:28:19.377Z,71.10
2023-01-30T06:30:46.208Z,71.00
2023-01-30T06:33:13.024Z,71.10
2023-01-30T06:35:41.145Z,71.00
2023-01-30T06:38:11.672Z,71.00
2023-01-30T06:40:39.028Z,71.00
2023-01-30T06:43:05.908Z,70.90
2023-01-30T06:45:33.149Z,70.90
2023-01-30T06:47:59.903Z,70.90
2023-01-30T06:50:28.226Z,70.80
2023-01-30T06:52:55.586Z,70.70
2023-01-30T06:55:25.887Z,70.50
2023-01-30T06:58:04.758Z,70.50
2023-01-30T07:00:32.451Z,70.40
2023-01-30T07:02:59.424Z,70.20
2023-01-30T07:05:26.484Z,70.00
2023-01-30T07:07:53.243Z,69.90
2023-01-30T07:10:20.160Z,69.60
2023-01-30T07:12:47.952Z,69.40
2023-01-30T07:15:15.162Z,69.30
2023-01-30T07:17:42.121Z,69.10
2023-01-30T07:20:11.813Z,68.90
2023-01-30T07:22:38.637Z,68.70
2023-01-30T07:25:05.910Z,68.40
2023-01-30T07:27:32.804Z,68.20
2023-01-30T07:29:59.818Z,67.90
2023-01-30T07:32:26.657Z,67.60
2023-01-30T07:34:53.476Z,67.40
2023-01-30T07:37:20.199Z,67.50
2023-01-30T07:39:46.949Z,67.40
2023-01-30T07:42:13.726Z,67.20
2023-01-30T07:44:40.464Z,67.60
2023-01-30T07:47:07.427Z,67.20
2023-01-30T07:49:34.277Z,67.10
2023-01-30T07:52:01.025Z,67.10
2023-01-30T07:54:27.841Z,67.00
2023-01-30T07:56:54.585Z,67.00
2023-01-30T07:59:21.354Z,67.00
2023-01-30T08:01:48.183Z,67.00
2023-01-30T08:04:15.010Z,66.90
2023-01-30T08:06:41.838Z,67.00
2023-01-30T08:09:08.827Z,67.00
2023-01-30T08:11:35.665Z,67.00
2023-01-30T08:14:02.759Z,66.90
2023-01-30T08:16:32.076Z,66.90
2023-01-30T08:18:59.135Z,66.90
2023-01-30T08:21:26.268Z,66.90
2023-01-30T08:23:53.037Z,67.00
2023-01-30T08:26:20.553Z,66.90
2023-01-30T08:28:47.379Z,67.00
2023-01-30T08:31:16.274Z,67.00
2023-01-30T08:33:43.664Z,66.90
2023-01-30T08:36:10.640Z,67.00
2023-01-30T08:38:37.391Z,67.00
2023-01-30T08:41:08.211Z,66.90
2023-01-30T08:43:35.346Z,66.70
2023-01-30T08:46:02.257Z,66.40
2023-01-30T08:48:36.672Z,66.30
2023-01-30T08:51:06.998Z,66.40
2023-01-30T08:53:33.745Z,66.40
2023-01-30T08:56:00.515Z,66.30
2023-01-30T08:58:27.320Z,66.40
2023-01-30T09:00:54.140Z,66.60
2023-01-30T09:03:20.985Z,66.40
2023-01-30T09:05:47.997Z,66.10
2023-01-30T09:08:14.813Z,65.80
2023-01-30T09:10:41.584Z,65.80
2023-01-30T09:13:11.406Z,65.70
2023-01-30T09:15:38.136Z,65.50
2023-01-30T09:18:05.152Z,65.70
2023-01-30T09:20:32.143Z,65.60
2023-01-30T09:23:01.691Z,65.60
2023-01-30T09:25:28.579Z,65.40
2023-01-30T09:27:55.501Z,65.30
2023-01-30T09:30:22.438Z,65.20
2023-01-30T09:32:49.283Z,65.30
2023-01-30T09:35:16.121Z,65.30
2023-01-30T09:37:50.567Z,65.10
2023-01-30T09:40:24.448Z,65.10
2023-01-30T09:43:18.014Z,64.80
2023-01-30T09:45:46.813Z,64.50
2023-01-30T09:48:31.267Z,64.90
2023-01-30T09:51:28.551Z,65.00
2023-01-30T09:54:15.198Z,65.00
2023-01-30T09:56:42.453Z,65.00
2023-01-30T09:59:30.453Z,65.20
2023-01-30T10:02:09.246Z,65.00
2023-01-30T10:04:41.982Z,64.80
2023-01-30T10:07:40.127Z,64.70
2023-01-30T10:10:40.687Z,64.50
2023-01-30T10:13:29.324Z,64.40
2023-01-30T10:16:09.952Z,64.20
2023-01-30T10:18:39.794Z,64.10
2023-01-30T10:21:52.244Z,64.10
2023-01-30T10:24:39.644Z,64.40
2023-01-30T10:27:13.634Z,64.20
2023-01-30T10:29:45.705Z,64.30
2023-01-30T10:32:14.777Z,64.40
2023-01-30T10:34:49.392Z,64.20
2023-01-30T10:37:31.200Z,63.90
2023-01-30T10:40:26.808Z,64.00
2023-01-30T10:43:03.812Z,63.70
2023-01-30T10:46:04.568Z,64.20
2023-01-30T10:48:57.583Z,63.80
2023-01-30T10:51:55.299Z,63.50
2023-01-30T10:54:52.026Z,63.30
2023-01-30T10:57:24.883Z,63.00
2023-01-30T11:00:12.795Z,63.10
2023-01-30T11:03:02.560Z,63.10
2023-01-30T11:05:39.610Z,62.80
2023-01-30T11:08:22.279Z,63.10
2023-01-30T11:10:50.052Z,63.20
2023-01-30T11:13:18.211Z,63.00
2023-01-30T11:15:47.771Z,63.80
2023-01-30T11:18:54.838Z,63.00
2023-01-30T11:21:10.123Z,62.90
2023-01-30T11:23:42.092Z,63.00
2023-01-30T11:26:23.004Z,63.40
2023-01-30T11:28:50.048Z,62.80
2023-01-30T11:31:40.345Z,62.60
2023-01-30T11:34:19.828Z,62.40
2023-01-30T11:36:47.465Z,62.60
2023-01-30T11:39:14.476Z,62.70
2023-01-30T11:42:03.467Z,62.90
2023-01-30T11:44:42.334Z,63.10
2023-01-30T11:47:15.467Z,62.80
2023-01-30T11:49:58.899Z,62.40
2023-01-30T11:52:36.861Z,62.40
2023-01-30T11:55:10.073Z,62.30
2023-01-30T11:57:58.981Z,62.10
2023-01-30T12:00:43.841Z,61.80
2023-01-30T12:03:14.489Z,61.60
2023-01-30T12:05:44.480Z,61.30
2023-01-30T12:08:12.879Z,61.10
2023-01-30T12:10:44.678Z,60.90
2023-01-30T12:13:23.806Z,60.50
2023-01-30T12:16:24.730Z,60.00
2023-01-30T12:19:13.608Z,60.40
2023-01-30T12:21:55.847Z,60.50
2023-01-30T12:24:27.474Z,60.40
2023-01-30T12:27:00.435Z,60.60
2023-01-30T12:29:39.389Z,60.60
2023-01-30T12:32:09.991Z,60.50
2023-01-30T12:34:37.218Z,61.10
2023-01-30T12:37:21.996Z,61.50
2023-01-30T12:39:56.087Z,61.60
2023-01-30T12:42:53.179Z,61.50
2023-01-30T12:45:30.588Z,61.40
2023-01-30T12:48:32.205Z,60.80
2023-01-30T12:51:17.457Z,61.00
2023-01-30T12:53:58.164Z,61.20
2023-01-30T12:57:01.201Z,61.30
2023-01-30T12:59:48.386Z,61.00
2023-01-30T13:02:43.164Z,61.10
2023-01-30T13:05:36.947Z,61.10
2023-01-30T13:08:11.552Z,61.10
2023-01-30T13:11:00.162Z,60.60
2023-01-30T13:13:54.629Z,60.80
2023-01-30T13:17:00.707Z,60.50
2023-01-30T13:19:49.800Z,60.30
2023-01-30T13:22:23.873Z,60.50
2023-01-30T13:25:12.942Z,60.50
2023-01-30T13:27:43.375Z,60.40
2023-01-30T13:30:16.760Z,60.80
2023-01-30T13:32:53.165Z,60.50
2023-01-30T13:35:31.591Z,60.30
2023-01-30T13:38:00.248Z,60.60
2023-01-30T13:40:42.359Z,60.60
2023-01-30T13:43:33.386Z,60.80
2023-01-30T13:46:09.589Z,60.50
2023-01-30T13:48:39.439Z,60.90
2023-01-30T13:51:06.169Z,61.10
2023-01-30T13:53:42.444Z,60.80
2023-01-30T13:56:39.743Z,61.10
2023-01-30T13:59:40.872Z,61.30
2023-01-30T14:02:16.717Z,61.50
2023-01-30T14:04:49.558Z,61.70
2023-01-30T14:07:21.772Z,61.60
2023-01-30T14:10:20.612Z,62.00
2023-01-30T14:12:50.988Z,62.00
2023-01-30T14:15:20.812Z,61.80
2023-01-30T14:17:57.692Z,61.90
2023-01-30T14:20:26.639Z,62.20
2023-01-30T14:22:56.869Z,62.10
2023-01-30T14:25:26.408Z,62.10
2023-01-30T14:27:54.386Z,62.10
2023-01-30T14:30:45.200Z,61.90
2023-01-30T14:33:33.936Z,61.70
2023-01-30T14:36:00.674Z,61.80
2023-01-30T14:38:38.524Z,61.60
2023-01-30T14:41:05.323Z,61.40
2023-01-30T14:43:42.962Z,61.60
2023-01-30T14:46:18.655Z,61.70
2023-01-30T14:48:51.924Z,62.00
2023-01-30T14:51:40.533Z,62.00
2023-01-30T14:54:13.701Z,61.90
2023-01-30T14:56:58.696Z,61.80
2023-01-30T14:59:43.869Z,61.70
2023-01-30T15:02:13.785Z,61.80
2023-01-30T15:04:54.777Z,61.80
2023-01-30T15:07:30.473Z,62.00
2023-01-30T15:10:26.072Z,62.00
2023-01-30T15:13:14.514Z,62.10
2023-01-30T15:15:54.068Z,61.90
2023-01-30T15:18:41.968Z,62.00
2023-01-30T15:21:44.119Z,62.20
2023-01-30T15:24:35.693Z,62.30
2023-01-30T15:27:12.364Z,62.30
2023-01-30T15:30:03.261Z,62.40
2023-01-30T15:32:31.760Z,62.50
2023-01-30T15:35:16.724Z,62.60
2023-01-30T15:37:46.544Z,62.70
2023-01-30T15:40:16.205Z,62.60
2023-01-30T15:42:44.851Z,63.50
2023-01-30T15:45:30.490Z,62.40
2023-01-30T15:48:30.465Z,62.40
2023-01-30T15:50:59.866Z,62.40
2023-01-30T15:53:37.324Z,62.40
2023-01-30T15:56:09.120Z,62.30
2023-01-30T15:58:40.194Z,62.50
2023-01-30T16:01:07.913Z,62.40
2023-01-30T16:03:42.672Z,62.30
2023-01-30T16:06:33.754Z,62.30
2023-01-30T16:09:01.860Z,62.30
2023-01-30T16:11:47.228Z,62.30
2023-01-30T16:14:15.293Z,62.10
2023-01-30T16:17:12.332Z,62.20
2023-01-30T16:19:39.822Z,62.50
2023-01-30T16:22:17.000Z,62.50
2023-01-30T16:24:47.817Z,62.70
2023-01-30T16:27:29.281Z,63.60
2023-01-30T16:30:07.599Z,64.60
2023-01-30T16:32:35.421Z,64.90
2023-01-30T16:35:33.982Z,65.10
2023-01-30T16:38:03.115Z,64.70
2023-01-30T16:40:42.423Z,64.20
2023-01-30T16:43:22.921Z,64.30
2023-01-30T16:45:52.904Z,64.10
2023-01-30T16:48:19.825Z,64.10
2023-01-30T16:50:48.659Z,64.00
2023-01-30T16:53:22.374Z,64.20
2023-01-30T16:55:58.264Z,64.60
2023-01-30T16:58:32.327Z,65.20
2023-01-30T17:01:05.359Z,65.60
2023-01-30T17:03:38.424Z,65.90
2023-01-30T17:06:12.706Z,66.00
2023-01-30T17:08:54.322Z,66.00
2023-01-30T17:11:34.134Z,66.00
2023-01-30T17:14:20.942Z,66.20
2023-01-30T17:17:01.124Z,66.30
2023-01-30T17:19:28.200Z,66.30
2023-01-30T17:21:57.211Z,66.30
2023-01-30T17:24:25.411Z,66.10
2023-01-30T17:26:59.215Z,66.50
2023-01-30T17:29:42.088Z,66.50
2023-01-30T17:32:12.617Z,66.50
2023-01-30T17:34:41.193Z,66.50
2023-01-30T17:37:20.104Z,66.50
2023-01-30T17:39:47.461Z,66.20
2023-01-30T17:42:15.681Z,65.90
2023-01-30T17:44:42.475Z,65.70
2023-01-30T17:47:12.784Z,65.40
2023-01-30T17:49:40.077Z,65.30
2023-01-30T17:52:07.165Z,65.10
2023-01-30T17:54:34.015Z,65.20
2023-01-30T17:57:03.068Z,65.30
2023-01-30T17:59:31.173Z,65.20
2023-01-30T18:01:58.338Z,65.20
2023-01-30T18:04:25.368Z,65.20
2023-01-30T18:07:03.961Z,65.20
2023-01-30T18:09:30.909Z,65.10
2023-01-30T18:11:57.759Z,65.10
2023-01-30T18:14:24.523Z,65.10
2023-01-30T18:16:51.408Z,65.10
2023-01-30T18:19:23.801Z,65.30
2023-01-30T18:21:50.755Z,65.40
2023-01-30T18:24:18.384Z,65.70
2023-01-30T18:26:45.948Z,65.70
2023-01-30T18:29:13.441Z,65.70
2023-01-30T18:31:41.038Z,65.50
2023-01-30T18:34:09.866Z,65.70
2023-01-30T18:36:37.570Z,66.00
2023-01-30T18:39:05.175Z,65.90
2023-01-30T18:41:32.335Z,66.00
2023-01-30T18:44:05.235Z,66.20
2023-01-30T18:46:32.658Z,66.40
2023-01-30T18:48:59.649Z,66.80
2023-01-30T18:51:33.586Z,67.20
2023-01-30T18:54:01.353Z,67.50
2023-01-30T18:56:31.566Z,67.50
2023-01-30T18:59:02.411Z,67.60
2023-01-30T19:01:31.353Z,67.80
2023-01-30T19:04:00.178Z,67.80
2023-01-30T19:06:28.702Z,67.80
2023-01-30T19:08:57.378Z,67.80
2023-01-30T19:11:43.180Z,68.50
2023-01-30T19:14:10.440Z,67.60
2023-01-30T19:16:39.232Z,67.70
2023-01-30T19:19:06.793Z,67.50
2023-01-30T19:21:34.204Z,67.80
2023-01-30T19:24:11.303Z,67.40
2023-01-30T19:26:38.144Z,67.20
2023-01-30T19:29:05.116Z,67.20
2023-01-30T19:31:32.068Z,67.00
2023-01-30T19:34:01.186Z,67.10
2023-01-30T19:36:30.257Z,67.00
2023-01-30T19:38:59.420Z,66.90
2023-01-30T19:41:28.975Z,66.80
2023-01-30T19:43:57.020Z,66.80
2023-01-30T19:46:24.277Z,66.80
2023-01-30T19:48:51.448Z,66.80
2023-01-30T19:51:23.931Z,66.80
2023-01-30T19:54:04.577Z,66.80
2023-01-30T19:56:31.863Z,66.90
2023-01-30T19:58:59.991Z,67.00
2023-01-30T20:01:29.719Z,67.10
2023-01-30T20:03:57.716Z,67.20
2023-01-30T20:06:29.558Z,67.40
2023-01-30T20:09:02.189Z,67.50
2023-01-30T20:11:30.955Z,67.60
2023-01-30T20:13:58.966Z,67.60
2023-01-30T20:16:27.560Z,67.70
2023-01-30T20:18:57.131Z,67.80
2023-01-30T20:21:24.594Z,67.90
2023-01-30T20:23:52.145Z,68.00
2023-01-30T20:26:24.494Z,68.20
2023-01-30T20:28:51.691Z,68.20
2023-01-30T20:31:29.545Z,68.30
2023-01-30T20:33:57.833Z,68.60
2023-01-30T20:36:26.856Z,68.80
2023-01-30T20:38:55.357Z,68.90
2023-01-30T20:41:24.780Z,68.90
2023-01-30T20:43:59.639Z,68.90
2023-01-30T20:46:31.514Z,69.00
2023-01-30T20:49:01.249Z,69.10
2023-01-30T20:51:30.545Z,69.10
2023-01-30T20:54:04.066Z,69.30
2023-01-30T20:56:37.434Z,69.70
2023-01-30T20:59:07.272Z,70.00
2023-01-30T21:01:34.802Z,70.50
2023-01-30T21:04:06.434Z,70.70
2023-01-30T21:06:41.281Z,70.70
2023-01-30T21:09:15.029Z,70.60
2023-01-30T21:11:41.917Z,70.30
2023-01-30T21:14:08.640Z,69.90
2023-01-30T21:16:37.165Z,69.70
2023-01-30T21:19:07.156Z,69.50
2023-01-30T21:21:41.107Z,69.30
2023-01-30T21:24:12.042Z,69.10
2023-01-30T21:26:41.144Z,69.00
2023-01-30T21:29:08.626Z,68.90
2023-01-30T21:31:37.441Z,68.90
2023-01-30T21:34:05.397Z,68.90
2023-01-30T21:36:32.405Z,68.90
2023-01-30T21:39:17.541Z,68.90
2023-01-30T21:42:04.340Z,68.80
2023-01-30T21:44:39.286Z,68.80
2023-01-30T21:47:07.108Z,69.70
2023-01-30T21:49:34.690Z,68.70
2023-01-30T21:52:01.548Z,68.50
2023-01-30T21:54:28.467Z,68.40
2023-01-30T21:56:55.740Z,68.40
2023-01-30T21:59:22.661Z,68.30
2023-01-30T22:01:49.437Z,68.20
2023-01-30T22:04:16.652Z,68.20
2023-01-30T22:06:44.178Z,68.20
2023-01-30T22:09:15.414Z,68.30
2023-01-30T22:11:43.119Z,68.20
2023-01-30T22:14:13.304Z,68.20
2023-01-30T22:16:40.621Z,68.20
2023-01-30T22:19:08.282Z,68.20
2023-01-30T22:21:38.550Z,68.20
2023-01-30T22:24:08.296Z,68.30
2023-01-30T22:26:36.456Z,68.30
2023-01-30T22:29:05.048Z,68.30
2023-01-30T22:31:35.064Z,68.20
2023-01-30T22:34:03.408Z,68.20
2023-01-30T22:36:32.656Z,68.40
2023-01-30T22:38:59.449Z,68.30
2023-01-30T22:41:27.648Z,68.30
2023-01-30T22:43:56.343Z,68.30
2023-01-30T22:46:25.601Z,68.30
2023-01-30T22:48:53.087Z,68.40
2023-01-30T22:51:22.364Z,68.50
2023-01-30T22:53:54.654Z,68.60
2023-01-30T22:56:23.847Z,68.70
2023-01-30T22:58:51.472Z,68.60
2023-01-30T23:01:18.186Z,68.70
2023-01-30T23:03:46.673Z,68.80
2023-01-30T23:06:15.955Z,68.70
2023-01-30T23:08:45.297Z,68.50
2023-01-30T23:11:19.655Z,68.50
2023-01-30T23:13:49.105Z,68.60
2023-01-30T23:16:18.391Z,69.50
2023-01-30T23:18:58.637Z,68.40
2023-01-30T23:21:37.142Z,68.30
2023-01-30T23:24:16.584Z,68.30
2023-01-30T23:26:47.428Z,68.10
2023-01-30T23:29:16.427Z,68.00
2023-01-30T23:31:44.575Z,68.10
2023-01-30T23:34:16.798Z,68.00
2023-01-30T23:36:44.897Z,68.10
2023-01-30T23:39:13.445Z,68.10
2023-01-30T23:41:41.530Z,68.00
2023-01-30T23:44:08.768Z,68.00
2023-01-30T23:46:40.597Z,68.00
2023-01-30T23:49:10.292Z,68.20
2023-01-30T23:51:39.910Z,68.20
2023-01-30T23:54:07.818Z,68.20
2023-01-30T23:56:36.421Z,68.40
2023-01-30T23:59:03.595Z,68.40
